createdAt,value
2022-10-17T00:00:56.696Z,102090.91
2022-10-17T00:03:23.554Z,102089.00
2022-10-17T00:05:51.095Z,102097.00
2022-10-17T00:08:18.611Z,102094.41
2022-10-17T00:10:45.931Z,102104.03
2022-10-17T00:13:13.062Z,102091.63
2022-10-17T00:15:44.559Z,102097.66
2022-10-17T00:18:11.439Z,102103.78
2022-10-17T00:20:38.291Z,102102.78
2022-10-17T00:23:05.215Z,102101.91
2022-10-17T00:25:32.150Z,102111.41
2022-10-17T00:27:59.226Z,102100.06
2022-10-17T00:30:26.118Z,102100.03
2022-10-17T00:32:53.067Z,102094.19
2022-10-17T00:35:20.110Z,102089.50
2022-10-17T00:37:48.410Z,102081.59
2022-10-17T00:40:15.377Z,102087.78
2022-10-17T00:42:42.216Z,102078.16
2022-10-17T00:45:21.294Z,102075.44
2022-10-17T00:48:04.059Z,102074.56
2022-10-17T00:50:32.124Z,102076.53
2022-10-17T00:53:02.808Z,102074.66
2022-10-17T00:55:33.571Z,102074.09
2022-10-17T00:58:04.085Z,102072.22
2022-10-17T01:00:31.245Z,102069.47
2022-10-17T01:02:58.527Z,102073.97
2022-10-17T01:05:25.821Z,102079.25
2022-10-17T01:07:54.287Z,102073.75
2022-10-17T01:13:13.828Z,102075.88
2022-10-17T01:15:50.462Z,102072.28
2022-10-17T01:18:26.324Z,102068.81
2022-10-17T01:21:06.602Z,102080.28
2022-10-17T01:23:36.327Z,102076.81
2022-10-17T01:26:06.346Z,102065.22
2022-10-17T01:29:15.196Z,102068.75
2022-10-17T01:32:03.088Z,102073.25
2022-10-17T01:34:47.040Z,102076.66
2022-10-17T01:37:36.111Z,102073.28
2022-10-17T01:40:28.291Z,102074.09
2022-10-17T01:43:28.271Z,102082.06
2022-10-17T01:46:02.882Z,102070.69
2022-10-17T01:48:37.081Z,102076.84
2022-10-17T01:51:13.305Z,102079.34
2022-10-17T01:53:49.312Z,102088.19
2022-10-17T01:56:18.558Z,102080.25
2022-10-17T01:58:57.444Z,102081.22
2022-10-17T02:01:26.981Z,102078.53
2022-10-17T02:03:56.589Z,102093.50
2022-10-17T02:06:23.601Z,102098.66
2022-10-17T02:08:51.461Z,102094.22
2022-10-17T02:11:23.103Z,102104.78
2022-10-17T02:14:23.939Z,102107.31
2022-10-17T02:17:14.204Z,102104.69
2022-10-17T02:20:06.494Z,102107.19
2022-10-17T02:22:52.031Z,102114.41
2022-10-17T02:25:28.184Z,102106.59
2022-10-17T02:28:19.733Z,102117.06
2022-10-17T02:30:46.639Z,102117.97
2022-10-17T02:33:42.061Z,102125.97
2022-10-17T02:36:15.351Z,102128.69
2022-10-17T02:38:45.697Z,102125.38
2022-10-17T02:41:18.139Z,102116.50
2022-10-17T02:43:49.042Z,102126.94
2022-10-17T02:46:23.184Z,102123.50
2022-10-17T02:49:16.698Z,102122.59
2022-10-17T02:51:56.279Z,102127.88
2022-10-17T02:54:29.489Z,102122.44
2022-10-17T02:57:25.522Z,102121.63
2022-10-17T02:59:53.130Z,102121.63
2022-10-17T03:02:20.150Z,102124.19
2022-10-17T03:04:47.440Z,102127.72
2022-10-17T03:07:15.972Z,102132.34
2022-10-17T03:09:43.814Z,102135.47
2022-10-17T03:12:10.630Z,102140.81
2022-10-17T03:14:37.633Z,102135.66
2022-10-17T03:17:04.705Z,102140.91
2022-10-17T03:19:32.224Z,102135.34
2022-10-17T03:21:59.112Z,102137.94
2022-10-17T03:24:26.017Z,102130.03
2022-10-17T03:26:53.330Z,102142.28
2022-10-17T03:29:20.316Z,102139.94
2022-10-17T03:31:47.557Z,102138.00
2022-10-17T03:34:16.921Z,102142.28
2022-10-17T03:36:43.847Z,102143.25
2022-10-17T03:39:11.028Z,102144.03
2022-10-17T03:41:38.185Z,102144.19
2022-10-17T03:44:05.461Z,102141.50
2022-10-17T03:46:33.694Z,102142.56
2022-10-17T03:49:01.269Z,102143.53
2022-10-17T03:51:28.435Z,102141.81
2022-10-17T03:54:02.169Z,102138.50
2022-10-17T03:56:29.211Z,102129.56
2022-10-17T03:59:05.310Z,102138.44
2022-10-17T04:01:35.319Z,102141.97
2022-10-17T04:04:02.239Z,102143.88
2022-10-17T04:06:32.615Z,102142.06
2022-10-17T04:09:00.560Z,102127.13
2022-10-17T04:11:34.892Z,102126.22
2022-10-17T04:14:03.384Z,102126.13
2022-10-17T04:16:30.545Z,102136.69
2022-10-17T04:19:01.600Z,102125.38
2022-10-17T04:21:33.887Z,102113.19
2022-10-17T04:24:06.556Z,102116.06
2022-10-17T04:26:54.905Z,102124.03
2022-10-17T04:29:25.496Z,102128.56
2022-10-17T04:31:56.471Z,102132.22
2022-10-17T04:34:42.551Z,102140.25
2022-10-17T04:37:09.445Z,102158.09
2022-10-17T04:39:37.189Z,102169.69
2022-10-17T04:42:04.130Z,102176.81
2022-10-17T04:44:31.592Z,102176.44
2022-10-17T04:46:58.906Z,102185.16
2022-10-17T04:49:26.597Z,102178.03
2022-10-17T04:51:57.989Z,102186.50
2022-10-17T04:54:33.367Z,102197.50
2022-10-17T04:57:07.122Z,102201.75
2022-10-17T04:59:34.380Z,102202.69
2022-10-17T05:02:24.211Z,102206.28
2022-10-17T05:04:51.965Z,102195.75
2022-10-17T05:07:20.476Z,102193.97
2022-10-17T05:09:58.969Z,102197.41
2022-10-17T05:12:26.860Z,102194.75
2022-10-17T05:14:54.534Z,102207.00
2022-10-17T05:17:25.434Z,102209.63
2022-10-17T05:19:52.395Z,102221.16
2022-10-17T05:22:19.362Z,102228.31
2022-10-17T05:24:46.898Z,102221.50
2022-10-17T05:27:14.051Z,102226.06
2022-10-17T05:29:41.068Z,102219.03
2022-10-17T05:32:20.355Z,102232.34
2022-10-17T05:34:48.202Z,102239.53
2022-10-17T05:37:15.485Z,102227.44
2022-10-17T05:39:50.673Z,102244.06
2022-10-17T05:42:19.645Z,102234.44
2022-10-17T05:44:47.619Z,102244.31
2022-10-17T05:47:17.479Z,102239.84
2022-10-17T05:49:48.566Z,102241.81
2022-10-17T05:52:20.530Z,102243.69
2022-10-17T05:55:07.722Z,102238.38
2022-10-17T05:57:34.717Z,102248.16
2022-10-17T06:00:05.185Z,102258.13
2022-10-17T06:02:41.299Z,102252.91
2022-10-17T06:05:09.771Z,102266.19
2022-10-17T06:07:37.150Z,102263.56
2022-10-17T06:10:06.461Z,102268.84
2022-10-17T06:12:33.478Z,102271.38
2022-10-17T06:15:00.498Z,102274.22
2022-10-17T06:17:28.270Z,102275.19
2022-10-17T06:19:55.232Z,102273.50
2022-10-17T06:22:23.967Z,102279.75
2022-10-17T06:24:52.654Z,102276.19
2022-10-17T06:27:20.477Z,102277.06
2022-10-17T06:29:48.358Z,102281.16
2022-10-17T06:32:15.459Z,102281.28
2022-10-17T06:34:45.911Z,102285.56
2022-10-17T06:37:12.948Z,102283.88
2022-10-17T06:39:41.469Z,102298.75
2022-10-17T06:42:13.026Z,102298.31
2022-10-17T06:44:49.453Z,102304.78
2022-10-17T06:47:37.375Z,102297.19
2022-10-17T06:50:15.955Z,102289.78
2022-10-17T06:52:51.870Z,102302.63
2022-10-17T06:55:38.935Z,102300.78
2022-10-17T06:58:17.260Z,102306.53
2022-10-17T07:01:22.878Z,102316.88
2022-10-17T07:03:56.880Z,102307.53
2022-10-17T07:06:24.843Z,102315.53
2022-10-17T07:08:55.790Z,102318.22
2022-10-17T07:11:23.383Z,102315.19
2022-10-17T07:13:52.573Z,102315.47
2022-10-17T07:16:21.425Z,102326.59
2022-10-17T07:18:54.378Z,102327.31
2022-10-17T07:21:21.739Z,102325.97
2022-10-17T07:23:48.805Z,102333.25
2022-10-17T07:26:17.943Z,102334.59
2022-10-17T07:28:46.713Z,102334.47
2022-10-17T07:31:45.621Z,102326.88
2022-10-17T07:34:12.972Z,102336.69
2022-10-17T07:36:40.601Z,102331.13
2022-10-17T07:39:08.509Z,102327.41
2022-10-17T07:41:37.877Z,102328.56
2022-10-17T07:44:05.111Z,102331.56
2022-10-17T07:46:36.750Z,102329.72
2022-10-17T07:49:03.781Z,102328.00
2022-10-17T07:51:30.705Z,102331.88
2022-10-17T07:53:57.844Z,102323.34
2022-10-17T07:56:24.950Z,102325.78
2022-10-17T07:58:53.207Z,102316.97
2022-10-17T08:01:20.214Z,102328.00
2022-10-17T08:03:51.088Z,102322.88
2022-10-17T08:06:18.394Z,102320.78
2022-10-17T08:08:45.475Z,102323.72
2022-10-17T08:11:14.643Z,102332.41
2022-10-17T08:13:42.462Z,102330.91
2022-10-17T08:16:12.767Z,102327.19
2022-10-17T08:18:41.371Z,102324.66
2022-10-17T08:21:10.158Z,102319.53
2022-10-17T08:23:37.848Z,102331.56
2022-10-17T08:26:08.282Z,102323.66
2022-10-17T08:28:37.015Z,102328.66
2022-10-17T08:31:09.578Z,102319.78
2022-10-17T08:33:36.989Z,102323.75
2022-10-17T08:36:05.549Z,102323.03
2022-10-17T08:38:35.678Z,102322.13
2022-10-17T08:41:31.793Z,102325.44
2022-10-17T08:44:32.564Z,102328.63
2022-10-17T08:47:04.116Z,102333.13
2022-10-17T08:49:52.587Z,102334.16
2022-10-17T08:52:29.947Z,102326.56
2022-10-17T08:54:56.987Z,102329.38
2022-10-17T08:57:23.853Z,102324.44
2022-10-17T08:59:53.558Z,102327.09
2022-10-17T09:02:38.809Z,102327.16
2022-10-17T09:05:24.022Z,102328.16
2022-10-17T09:08:23.456Z,102326.19
2022-10-17T09:10:56.309Z,102326.34
2022-10-17T09:14:01.915Z,102326.16
2022-10-17T09:16:34.631Z,102332.03
2022-10-17T09:19:11.139Z,102323.69
2022-10-17T09:21:46.911Z,102335.91
2022-10-17T09:24:20.734Z,102327.34
2022-10-17T09:26:47.690Z,102337.13
2022-10-17T09:29:23.549Z,102332.84
2022-10-17T09:31:59.460Z,102336.59
2022-10-17T09:34:28.635Z,102333.16
2022-10-17T09:36:58.680Z,102329.53
2022-10-17T09:39:27.008Z,102321.81
2022-10-17T09:41:59.178Z,102327.34
2022-10-17T09:44:39.639Z,102318.63
2022-10-17T09:47:31.411Z,102315.31
2022-10-17T09:49:58.278Z,102317.19
2022-10-17T09:52:33.891Z,102312.09
2022-10-17T09:55:34.146Z,102308.16
2022-10-17T09:58:03.409Z,102322.16
2022-10-17T10:00:35.342Z,102330.03
2022-10-17T10:03:14.520Z,102326.47
2022-10-17T10:05:42.525Z,102323.31
2022-10-17T10:08:17.483Z,102326.69
2022-10-17T10:10:45.241Z,102316.66
2022-10-17T10:13:15.037Z,102316.75
2022-10-17T10:15:44.167Z,102315.06
2022-10-17T10:18:26.490Z,102310.22
2022-10-17T10:21:31.545Z,102317.34
2022-10-17T10:24:10.578Z,102311.88
2022-10-17T10:26:42.853Z,102303.84
2022-10-17T10:29:40.144Z,102304.28
2022-10-17T10:35:03.733Z,102290.72
2022-10-17T10:37:43.629Z,102306.84
2022-10-17T10:40:19.617Z,102300.28
2022-10-17T10:42:50.365Z,102295.81
2022-10-17T10:45:43.255Z,102298.25
2022-10-17T10:48:34.385Z,102296.28
2022-10-17T10:51:11.676Z,102297.03
2022-10-17T10:53:48.676Z,102292.09
2022-10-17T10:56:24.280Z,102292.44
2022-10-17T10:59:04.834Z,102291.00
2022-10-17T11:01:41.471Z,102283.03
2022-10-17T11:04:29.476Z,102286.00
2022-10-17T11:07:22.625Z,102281.22
2022-10-17T11:10:39.449Z,102271.03
2022-10-17T11:13:13.999Z,102274.28
2022-10-17T11:15:47.362Z,102252.34
2022-10-17T11:18:49.375Z,102283.69
2022-10-17T11:21:22.718Z,102276.84
2022-10-17T11:24:12.512Z,102267.22
2022-10-17T11:26:46.573Z,102259.34
2022-10-17T11:29:13.910Z,102255.66
2022-10-17T11:31:50.572Z,102270.06
2022-10-17T11:34:25.135Z,102263.19
2022-10-17T11:36:54.680Z,102262.28
2022-10-17T11:39:42.194Z,102268.94
2022-10-17T11:42:18.436Z,102265.28
2022-10-17T11:44:45.682Z,102259.78
2022-10-17T11:47:47.082Z,102253.03
2022-10-17T11:53:15.088Z,102256.69
2022-10-17T11:55:43.671Z,102269.63
2022-10-17T11:58:13.114Z,102264.03
2022-10-17T12:01:08.331Z,102266.84
2022-10-17T12:03:59.940Z,102260.44
2022-10-17T12:06:54.486Z,102254.19
2022-10-17T12:09:46.243Z,102258.31
2022-10-17T12:12:26.220Z,102261.84
2022-10-17T12:14:53.701Z,102259.97
2022-10-17T12:17:39.033Z,102256.63
2022-10-17T12:20:21.548Z,102264.63
2022-10-17T12:22:54.100Z,102264.50
2022-10-17T12:25:30.006Z,102260.94
2022-10-17T12:28:32.464Z,102261.91
2022-10-17T12:30:59.510Z,102266.53
2022-10-17T12:33:34.062Z,102262.38
2022-10-17T12:36:19.048Z,102264.94
2022-10-17T12:38:49.947Z,102260.03
2022-10-17T12:41:37.394Z,102266.53
2022-10-17T12:44:13.385Z,102259.41
2022-10-17T12:46:51.308Z,102268.41
2022-10-17T12:49:21.453Z,102273.25
2022-10-17T12:52:25.522Z,102260.69
2022-10-17T12:55:11.643Z,102255.69
2022-10-17T12:58:03.681Z,102252.59
2022-10-17T13:01:22.404Z,102259.94
2022-10-17T13:03:46.891Z,102258.59
2022-10-17T13:06:40.405Z,102258.44
2022-10-17T13:09:25.031Z,102264.75
2022-10-17T13:11:54.009Z,102265.66
2022-10-17T13:14:22.967Z,102264.78
2022-10-17T13:16:56.171Z,102272.03
2022-10-17T13:19:51.523Z,102261.66
2022-10-17T13:22:20.407Z,102261.44
2022-10-17T13:24:48.735Z,102267.50
2022-10-17T13:27:23.272Z,102265.91
2022-10-17T13:29:50.080Z,102263.78
2022-10-17T13:32:17.028Z,102263.66
2022-10-17T13:34:43.995Z,102269.19
2022-10-17T13:37:14.837Z,102269.84
2022-10-17T13:39:55.379Z,102276.19
2022-10-17T13:42:27.967Z,102268.47
2022-10-17T13:44:56.239Z,102281.31
2022-10-17T13:47:27.367Z,102281.53
2022-10-17T13:49:55.623Z,102286.16
2022-10-17T13:52:27.343Z,102279.97
2022-10-17T13:54:55.045Z,102271.34
2022-10-17T13:57:24.059Z,102288.16
2022-10-17T13:59:55.223Z,102276.13
2022-10-17T14:02:28.162Z,102280.75
2022-10-17T14:05:17.607Z,102275.34
2022-10-17T14:08:15.253Z,102274.06
2022-10-17T14:10:44.814Z,102276.94
2022-10-17T14:13:23.984Z,102290.38
2022-10-17T14:15:52.938Z,102281.25
2022-10-17T14:18:34.930Z,102288.00
2022-10-17T14:23:53.327Z,102292.69
2022-10-17T14:26:24.130Z,102296.22
2022-10-17T14:29:07.058Z,102292.50
2022-10-17T14:31:36.023Z,102296.00
2022-10-17T14:34:05.427Z,102292.25
2022-10-17T14:36:36.176Z,102299.59
2022-10-17T14:39:07.034Z,102302.22
2022-10-17T14:41:43.599Z,102309.31
2022-10-17T14:44:22.290Z,102312.72
2022-10-17T14:46:54.153Z,102309.53
2022-10-17T14:49:37.330Z,102312.53
2022-10-17T14:52:18.648Z,102316.66
2022-10-17T14:54:48.360Z,102328.59
2022-10-17T14:57:18.613Z,102329.19
2022-10-17T14:59:54.560Z,102332.50
2022-10-17T15:02:22.380Z,102328.44
2022-10-17T15:04:49.256Z,102330.06
2022-10-17T15:07:17.760Z,102322.66
2022-10-17T15:09:47.235Z,102329.97
2022-10-17T15:12:17.191Z,102341.34
2022-10-17T15:14:44.835Z,102343.91
2022-10-17T15:17:19.036Z,102351.44
2022-10-17T15:19:46.075Z,102345.19
2022-10-17T15:22:13.103Z,102356.53
2022-10-17T15:24:40.093Z,102349.16
2022-10-17T15:27:19.110Z,102351.91
2022-10-17T15:29:46.532Z,102360.84
2022-10-17T15:32:14.094Z,102364.50
2022-10-17T15:34:41.528Z,102365.16
2022-10-17T15:37:17.678Z,102368.00
2022-10-17T15:39:45.915Z,102366.31
2022-10-17T15:42:12.915Z,102369.78
2022-10-17T15:44:43.907Z,102376.91
2022-10-17T15:47:34.961Z,102376.00
2022-10-17T15:50:02.492Z,102372.38
2022-10-17T15:52:29.758Z,102380.41
2022-10-17T15:54:58.500Z,102385.75
2022-10-17T15:57:31.861Z,102385.81
2022-10-17T16:00:00.255Z,102382.28
2022-10-17T16:02:27.850Z,102398.22
2022-10-17T16:04:54.824Z,102396.50
2022-10-17T16:07:22.003Z,102403.69
2022-10-17T16:09:48.958Z,102403.69
2022-10-17T16:12:19.193Z,102407.19
2022-10-17T16:14:46.067Z,102406.31
2022-10-17T16:17:16.934Z,102406.28
2022-10-17T16:19:44.256Z,102411.66
2022-10-17T16:22:24.869Z,102412.53
2022-10-17T16:24:58.354Z,102415.16
2022-10-17T16:27:26.490Z,102424.09
2022-10-17T16:29:53.426Z,102421.38
2022-10-17T16:32:20.306Z,102425.78
2022-10-17T16:34:47.172Z,102426.66
2022-10-17T16:37:16.626Z,102425.75
2022-10-17T16:39:43.531Z,102429.28
2022-10-17T16:42:10.370Z,102427.50
2022-10-17T16:44:37.299Z,102433.63
2022-10-17T16:47:04.206Z,102431.91
2022-10-17T16:49:31.026Z,102437.19
2022-10-17T16:51:58.127Z,102443.41
2022-10-17T16:54:25.029Z,102430.97
2022-10-17T16:56:51.960Z,102435.41
2022-10-17T16:59:18.820Z,102433.69
2022-10-17T17:01:45.701Z,102439.81
2022-10-17T17:04:12.595Z,102438.91
2022-10-17T17:06:39.691Z,102441.69
2022-10-17T17:09:08.773Z,102442.66
2022-10-17T17:11:37.530Z,102433.81
2022-10-17T17:14:05.890Z,102445.31
2022-10-17T17:16:35.211Z,102447.94
2022-10-17T17:19:07.694Z,102445.31
2022-10-17T17:21:35.143Z,102443.47
2022-10-17T17:24:03.928Z,102457.66
2022-10-17T17:26:36.180Z,102457.63
2022-10-17T17:29:04.895Z,102452.41
2022-10-17T17:31:34.190Z,102451.38
2022-10-17T17:34:02.226Z,102448.59
2022-10-17T17:36:31.985Z,102459.38
2022-10-17T17:39:01.156Z,102458.50
2022-10-17T17:41:28.866Z,102460.25
2022-10-17T17:43:56.299Z,102457.59
2022-10-17T17:46:24.812Z,102461.97
2022-10-17T17:48:52.857Z,102458.56
2022-10-17T17:51:26.943Z,102468.22
2022-10-17T17:53:56.709Z,102468.19
2022-10-17T17:56:29.695Z,102459.31
2022-10-17T17:59:02.266Z,102462.91
2022-10-17T18:01:38.846Z,102466.28
2022-10-17T18:04:08.923Z,102467.25
2022-10-17T18:06:37.514Z,102476.09
2022-10-17T18:09:05.968Z,102471.75
2022-10-17T18:11:33.377Z,102481.44
2022-10-17T18:14:04.056Z,102470.72
2022-10-17T18:16:32.460Z,102477.91
2022-10-17T18:19:04.137Z,102476.16
2022-10-17T18:21:34.661Z,102472.50
2022-10-17T18:24:02.091Z,102473.28
2022-10-17T18:26:28.961Z,102471.50
2022-10-17T18:28:56.676Z,102473.28
2022-10-17T18:31:28.402Z,102468.06
2022-10-17T18:33:58.015Z,102474.94
2022-10-17T18:36:28.714Z,102467.94
2022-10-17T18:38:56.616Z,102468.03
2022-10-17T18:41:25.882Z,102469.63
2022-10-17T18:43:54.515Z,102471.34
2022-10-17T18:46:26.838Z,102482.66
2022-10-17T18:48:54.203Z,102470.56
2022-10-17T18:51:24.040Z,102475.78
2022-10-17T18:53:53.282Z,102487.66
2022-10-17T18:56:21.562Z,102481.94
2022-10-17T18:58:48.518Z,102486.25
2022-10-17T19:01:18.452Z,102479.19
2022-10-17T19:03:49.875Z,102483.53
2022-10-17T19:06:19.977Z,102491.31
2022-10-17T19:08:47.746Z,102487.06
2022-10-17T19:11:20.954Z,102486.69
2022-10-17T19:13:48.662Z,102487.31
2022-10-17T19:16:21.165Z,102485.34
2022-10-17T19:18:56.525Z,102489.72
2022-10-17T19:21:23.697Z,102499.22
2022-10-17T19:23:52.995Z,102483.34
2022-10-17T19:26:21.537Z,102492.94
2022-10-17T19:28:48.569Z,102491.06
2022-10-17T19:31:17.972Z,102494.41
2022-10-17T19:33:45.359Z,102494.69
2022-10-17T19:36:13.472Z,102499.41
2022-10-17T19:38:40.372Z,102498.56
2022-10-17T19:41:09.897Z,102501.31
2022-10-17T19:43:37.965Z,102497.66
2022-10-17T19:46:07.515Z,102498.66
2022-10-17T19:48:39.373Z,102495.19
2022-10-17T19:51:08.533Z,102488.09
2022-10-17T19:53:35.658Z,102492.38
2022-10-17T19:56:03.407Z,102492.31
2022-10-17T19:58:30.931Z,102491.81
2022-10-17T20:01:01.279Z,102491.72
2022-10-17T20:03:29.390Z,102495.34
2022-10-17T20:05:56.455Z,102490.25
2022-10-17T20:08:23.584Z,102490.19
2022-10-17T20:10:50.499Z,102494.56
2022-10-17T20:13:17.473Z,102485.75
2022-10-17T20:15:54.577Z,102492.75
2022-10-17T20:18:21.771Z,102474.16
2022-10-17T20:20:49.142Z,102474.06
2022-10-17T20:23:16.160Z,102477.38
2022-10-17T20:25:43.248Z,102475.69
2022-10-17T20:28:10.417Z,102473.81
2022-10-17T20:30:37.869Z,102475.38
2022-10-17T20:33:04.848Z,102471.72
2022-10-17T20:35:31.789Z,102474.28
2022-10-17T20:37:58.732Z,102466.44
2022-10-17T20:40:40.986Z,102472.56
2022-10-17T20:43:10.023Z,102468.94
2022-10-17T20:45:51.582Z,102466.19
2022-10-17T20:48:19.217Z,102467.81
2022-10-17T20:50:46.103Z,102461.69
2022-10-17T20:56:05.780Z,102464.53
2022-10-17T20:58:32.854Z,102459.34
2022-10-17T21:01:05.471Z,102457.53
2022-10-17T21:03:37.805Z,102459.25
2022-10-17T21:06:09.134Z,102460.56
2022-10-17T21:08:36.151Z,102459.91
2022-10-17T21:11:14.553Z,102450.28
2022-10-17T21:13:42.256Z,102447.84
2022-10-17T21:16:11.806Z,102449.53
2022-10-17T21:18:39.293Z,102453.97
2022-10-17T21:21:16.723Z,102450.25
2022-10-17T21:23:45.529Z,102441.72
2022-10-17T21:26:13.018Z,102440.81
2022-10-17T21:28:41.097Z,102433.72
2022-10-17T21:31:16.907Z,102444.19
2022-10-17T21:33:48.558Z,102430.00
2022-10-17T21:36:16.995Z,102439.44
2022-10-17T21:38:48.384Z,102434.47
2022-10-17T21:41:17.370Z,102429.19
2022-10-17T21:43:44.262Z,102431.06
2022-10-17T21:46:18.910Z,102432.84
2022-10-17T21:48:47.335Z,102426.13
2022-10-17T21:51:16.578Z,102429.63
2022-10-17T21:53:43.891Z,102426.88
2022-10-17T21:56:14.274Z,102428.44
2022-10-17T21:58:41.901Z,102436.66
2022-10-17T22:01:16.364Z,102435.59
2022-10-17T22:03:46.921Z,102436.56
2022-10-17T22:09:05.874Z,102424.13
2022-10-17T22:11:35.363Z,102428.47
2022-10-17T22:14:05.125Z,102432.78
2022-10-17T22:16:32.661Z,102440.59
2022-10-17T22:19:04.830Z,102440.53
2022-10-17T22:21:34.553Z,102426.38
2022-10-17T22:24:04.470Z,102434.25
2022-10-17T22:26:32.949Z,102432.53
2022-10-17T22:29:00.402Z,102432.63
2022-10-17T22:31:27.438Z,102432.66
2022-10-17T22:33:54.368Z,102432.09
2022-10-17T22:36:21.376Z,102432.25
2022-10-17T22:38:48.557Z,102444.53
2022-10-17T22:41:15.406Z,102434.06
2022-10-17T22:43:42.313Z,102441.13
2022-10-17T22:46:13.185Z,102441.06
2022-10-17T22:48:40.403Z,102446.13
2022-10-17T22:51:07.722Z,102442.25
2022-10-17T22:53:35.355Z,102443.41
2022-10-17T22:56:06.582Z,102443.88
2022-10-17T22:58:34.818Z,102437.06
2022-10-17T23:01:02.029Z,102434.06
2022-10-17T23:03:30.862Z,102433.78
2022-10-17T23:05:58.195Z,102441.53
2022-10-17T23:08:26.109Z,102435.56
2022-10-17T23:10:53.346Z,102433.09
2022-10-17T23:13:21.490Z,102419.84
2022-10-17T23:15:55.911Z,102423.31
2022-10-17T23:18:24.530Z,102432.03
2022-10-17T23:20:51.690Z,102420.59
2022-10-17T23:23:19.545Z,102416.13
2022-10-17T23:25:47.079Z,102427.53
2022-10-17T23:28:14.061Z,102417.00
2022-10-17T23:30:41.425Z,102420.53
2022-10-17T23:33:10.695Z,102415.66
2022-10-17T23:35:37.581Z,102416.16
2022-10-17T23:38:04.719Z,102414.19
2022-10-17T23:40:31.664Z,102413.41
2022-10-17T23:42:58.586Z,102407.63
2022-10-17T23:45:25.528Z,102404.03
2022-10-17T23:47:52.406Z,102402.00
2022-10-17T23:50:19.326Z,102406.28
2022-10-17T23:52:46.257Z,102401.75
2022-10-17T23:55:13.258Z,102407.00
2022-10-17T23:57:40.138Z,102403.53
